createdAt,value
2018-02-19T00:00:06.350Z,4.94
2018-02-19T00:00:32.451Z,4.87
2018-02-19T00:00:58.554Z,4.96
2018-02-19T00:01:24.652Z,4.9
2018-02-19T00:01:50.757Z,4.9
2018-02-19T00:02:16.853Z,4.92
2018-02-19T00:02:42.972Z,4.9
2018-02-19T00:03:09.077Z,4.96
2018-02-19T00:03:35.176Z,4.96
2018-02-19T00:04:01.276Z,4.99
2018-02-19T00:04:27.380Z,4.89
2018-02-19T00:04:53.481Z,4.75
2018-02-19T00:05:19.585Z,4.77
2018-02-19T00:05:45.685Z,4.9
2018-02-19T00:06:11.780Z,4.86
2018-02-19T00:06:37.887Z,4.77
2018-02-19T00:07:03.982Z,4.77
2018-02-19T00:07:30.082Z,4.9
2018-02-19T00:07:56.189Z,4.96
2018-02-19T00:08:22.286Z,4.97
2018-02-19T00:08:48.407Z,4.94
2018-02-19T00:09:14.513Z,4.8
2018-02-19T00:09:40.608Z,4.87
2018-02-19T00:10:06.712Z,4.84
2018-02-19T00:10:32.807Z,4.89
2018-02-19T00:10:58.907Z,4.92
2018-02-19T00:11:25.011Z,4.96
2018-02-19T00:11:51.109Z,4.87
2018-02-19T00:12:17.213Z,4.78
2018-02-19T00:12:43.321Z,4.86
2018-02-19T00:13:09.416Z,4.9
2018-02-19T00:13:35.517Z,4.75
2018-02-19T00:14:01.623Z,4.77
2018-02-19T00:14:27.733Z,4.84
2018-02-19T00:14:53.838Z,4.77
2018-02-19T00:15:19.939Z,4.84
2018-02-19T00:15:46.034Z,4.86
2018-02-19T00:16:12.133Z,4.9
2018-02-19T00:16:38.265Z,4.9
2018-02-19T00:17:04.376Z,4.96
2018-02-19T00:17:30.480Z,4.9
2018-02-19T00:17:56.576Z,5.05
2018-02-19T00:18:22.676Z,4.97
2018-02-19T00:18:48.783Z,4.97
2018-02-19T00:19:14.875Z,5.04
2018-02-19T00:19:40.980Z,4.89
2018-02-19T00:20:07.082Z,4.89
2018-02-19T00:20:33.177Z,4.89
2018-02-19T00:20:59.277Z,4.86
2018-02-19T00:21:25.377Z,4.92
2018-02-19T00:21:51.481Z,4.9
2018-02-19T00:22:17.605Z,4.92
2018-02-19T00:22:43.725Z,4.97
2018-02-19T00:23:09.827Z,4.94
2018-02-19T00:23:35.924Z,4.87
2018-02-19T00:24:02.029Z,4.9
2018-02-19T00:24:28.126Z,4.96
2018-02-19T00:24:54.244Z,4.94
2018-02-19T00:25:20.347Z,4.78
2018-02-19T00:25:46.465Z,4.9
2018-02-19T00:26:12.585Z,4.89
2018-02-19T00:26:38.683Z,4.77
2018-02-19T00:27:04.791Z,4.8
2018-02-19T00:27:30.907Z,4.84
2018-02-19T00:27:57.011Z,4.75
2018-02-19T00:28:23.114Z,4.82
2018-02-19T00:28:49.232Z,4.78
2018-02-19T00:29:15.335Z,4.77
2018-02-19T00:29:41.429Z,4.86
2018-02-19T00:30:07.531Z,4.84
2018-02-19T00:30:33.631Z,4.89
2018-02-19T00:30:59.750Z,4.75
2018-02-19T00:31:25.856Z,4.8
2018-02-19T00:31:51.953Z,4.8
2018-02-19T00:32:18.057Z,4.62
2018-02-19T00:32:44.158Z,4.73
2018-02-19T00:33:10.254Z,4.7
2018-02-19T00:33:36.357Z,4.66
2018-02-19T00:34:02.455Z,4.68
2018-02-19T00:34:28.553Z,4.75
2018-02-19T00:34:54.656Z,4.78
2018-02-19T00:35:20.754Z,4.75
2018-02-19T00:35:46.900Z,4.77
2018-02-19T00:36:12.963Z,4.8
2018-02-19T00:36:39.064Z,4.86
2018-02-19T00:37:05.163Z,4.84
2018-02-19T00:37:31.258Z,4.8
2018-02-19T00:37:57.360Z,4.77
2018-02-19T00:38:23.456Z,4.8
2018-02-19T00:38:49.562Z,4.78
2018-02-19T00:39:15.657Z,4.74
2018-02-19T00:39:41.757Z,4.84
2018-02-19T00:40:07.864Z,4.82
2018-02-19T00:40:33.963Z,4.8
2018-02-19T00:41:00.083Z,4.82
2018-02-19T00:41:26.188Z,4.74
2018-02-19T00:41:52.280Z,4.78
2018-02-19T00:42:18.411Z,4.75
2018-02-19T00:42:44.506Z,4.77
2018-02-19T00:43:10.615Z,4.78
2018-02-19T00:43:36.714Z,4.7
2018-02-19T00:44:02.836Z,4.68
2018-02-19T00:44:28.929Z,4.67
2018-02-19T00:44:55.042Z,4.73
2018-02-19T00:45:21.146Z,4.59
2018-02-19T00:45:47.242Z,4.67
2018-02-19T00:46:13.350Z,4.62
2018-02-19T00:46:39.443Z,4.67
2018-02-19T00:47:05.545Z,4.68
2018-02-19T00:47:31.650Z,4.53
2018-02-19T00:47:57.750Z,4.63
2018-02-19T00:48:23.868Z,4.68
2018-02-19T00:48:49.963Z,4.68
2018-02-19T00:49:16.067Z,4.62
2018-02-19T00:49:42.184Z,4.56
2018-02-19T00:50:08.282Z,4.62
2018-02-19T00:50:34.386Z,4.58
2018-02-19T00:51:00.487Z,4.5
2018-02-19T00:51:26.588Z,4.55
2018-02-19T00:51:52.709Z,4.58
2018-02-19T00:52:18.804Z,4.53
2018-02-19T00:52:44.911Z,4.52
2018-02-19T00:53:11.010Z,4.56
2018-02-19T00:53:37.121Z,4.66
2018-02-19T00:54:03.223Z,4.58
2018-02-19T00:54:29.327Z,4.58
2018-02-19T00:54:55.425Z,4.7
2018-02-19T00:55:21.539Z,4.7
2018-02-19T00:55:47.643Z,4.7
2018-02-19T00:56:13.741Z,4.68
2018-02-19T00:56:39.847Z,4.58
2018-02-19T00:57:05.950Z,4.59
2018-02-19T00:57:32.051Z,4.58
2018-02-19T00:57:58.177Z,4.56
2018-02-19T00:58:24.265Z,4.62
2018-02-19T00:58:50.368Z,4.68
2018-02-19T00:59:16.496Z,4.59
2018-02-19T00:59:42.570Z,4.73
2018-02-19T01:00:08.673Z,4.67
2018-02-19T01:00:34.794Z,4.7
2018-02-19T01:01:00.891Z,4.68
2018-02-19T01:01:26.994Z,4.7
2018-02-19T01:01:53.109Z,4.63
2018-02-19T01:02:19.214Z,4.62
2018-02-19T01:02:45.309Z,4.7
2018-02-19T01:03:11.412Z,4.7
2018-02-19T01:03:37.726Z,4.67
2018-02-19T01:04:03.830Z,4.67
2018-02-19T01:04:29.923Z,4.66
2018-02-19T01:04:56.020Z,4.68
2018-02-19T01:05:22.139Z,4.66
2018-02-19T01:05:48.244Z,4.67
2018-02-19T01:06:14.338Z,4.66
2018-02-19T01:06:40.434Z,4.7
2018-02-19T01:07:06.538Z,4.73
2018-02-19T01:07:32.633Z,4.66
2018-02-19T01:07:58.739Z,4.67
2018-02-19T01:08:24.860Z,4.73
2018-02-19T01:08:50.958Z,4.68
2018-02-19T01:09:17.061Z,4.67
2018-02-19T01:09:43.186Z,4.67
2018-02-19T01:10:09.308Z,4.74
2018-02-19T01:10:35.410Z,4.73
2018-02-19T01:11:01.514Z,4.75
2018-02-19T01:11:27.609Z,4.74
2018-02-19T01:11:53.706Z,4.77
2018-02-19T01:12:19.823Z,4.77
2018-02-19T01:12:45.917Z,4.82
2018-02-19T01:13:12.018Z,4.78
2018-02-19T01:13:38.114Z,4.87
2018-02-19T01:14:04.217Z,4.77
2018-02-19T01:14:30.316Z,4.78
2018-02-19T01:14:56.413Z,4.8
2018-02-19T01:15:22.516Z,4.8
2018-02-19T01:15:48.617Z,4.8
2018-02-19T01:16:14.733Z,4.77
2018-02-19T01:16:40.838Z,4.82
2018-02-19T01:17:06.932Z,4.77
2018-02-19T01:17:33.029Z,4.84
2018-02-19T01:17:59.135Z,4.78
2018-02-19T01:18:25.232Z,4.84
2018-02-19T01:18:51.334Z,4.67
2018-02-19T01:19:17.433Z,4.66
2018-02-19T01:19:43.534Z,4.77
2018-02-19T01:20:09.632Z,4.82
2018-02-19T01:20:35.729Z,4.74
2018-02-19T01:21:01.832Z,4.77
2018-02-19T01:21:27.929Z,4.78
2018-02-19T01:21:54.038Z,4.89
2018-02-19T01:22:20.131Z,4.78
2018-02-19T01:22:46.230Z,4.8
2018-02-19T01:23:12.335Z,4.78
2018-02-19T01:23:38.433Z,4.89
2018-02-19T01:24:04.530Z,4.82
2018-02-19T01:24:30.636Z,4.82
2018-02-19T01:24:56.736Z,4.84
2018-02-19T01:25:22.852Z,4.89
2018-02-19T01:25:48.946Z,4.84
2018-02-19T01:26:15.051Z,4.78
2018-02-19T01:26:41.149Z,4.92
2018-02-19T01:27:07.251Z,4.89
2018-02-19T01:27:33.351Z,4.73
2018-02-19T01:27:59.446Z,4.68
2018-02-19T01:28:25.549Z,4.77
2018-02-19T01:28:51.647Z,4.77
2018-02-19T01:29:17.745Z,4.73
2018-02-19T01:29:43.846Z,4.58
2018-02-19T01:30:09.944Z,4.55
2018-02-19T01:30:36.048Z,4.56
2018-02-19T01:31:02.145Z,4.55
2018-02-19T01:31:28.246Z,4.59
2018-02-19T01:31:54.350Z,4.6
2018-02-19T01:32:20.446Z,4.7
2018-02-19T01:32:46.542Z,4.7
2018-02-19T01:33:12.643Z,4.6
2018-02-19T01:33:38.740Z,4.59
2018-02-19T01:34:04.849Z,4.59
2018-02-19T01:34:30.950Z,4.63
2018-02-19T01:34:57.046Z,4.71
2018-02-19T01:35:23.146Z,4.67
2018-02-19T01:35:49.268Z,4.78
2018-02-19T01:36:15.370Z,4.7
2018-02-19T01:36:41.464Z,4.62
2018-02-19T01:37:07.561Z,4.59
2018-02-19T01:37:33.657Z,4.67
2018-02-19T01:37:59.767Z,4.58
2018-02-19T01:38:25.865Z,4.58
2018-02-19T01:38:51.961Z,4.59
2018-02-19T01:39:18.065Z,4.67
2018-02-19T01:39:44.167Z,4.6
2018-02-19T01:40:10.264Z,4.44
2018-02-19T01:40:36.369Z,4.48
2018-02-19T01:41:02.464Z,4.45
2018-02-19T01:41:28.565Z,4.48
2018-02-19T01:41:54.667Z,4.41
2018-02-19T01:42:20.770Z,4.5
2018-02-19T01:42:46.863Z,4.5
2018-02-19T01:43:12.968Z,4.6
2018-02-19T01:43:39.064Z,4.52
2018-02-19T01:44:05.163Z,4.52
2018-02-19T01:44:31.264Z,4.58
2018-02-19T01:44:57.362Z,4.53
2018-02-19T01:45:23.481Z,4.58
2018-02-19T01:45:49.581Z,4.44
2018-02-19T01:46:15.676Z,4.44
2018-02-19T01:46:41.777Z,4.45
2018-02-19T01:47:07.899Z,4.37
2018-02-19T01:47:34.002Z,4.49
2018-02-19T01:48:00.095Z,4.4
2018-02-19T01:48:26.198Z,4.37
2018-02-19T01:48:52.294Z,4.45
2018-02-19T01:49:18.390Z,4.44
2018-02-19T01:49:44.492Z,4.35
2018-02-19T01:50:10.590Z,4.3
2018-02-19T01:50:36.692Z,4.35
2018-02-19T01:51:02.794Z,4.37
2018-02-19T01:51:28.889Z,4.31
2018-02-19T01:51:54.994Z,4.38
2018-02-19T01:52:21.090Z,4.37
2018-02-19T01:52:47.193Z,4.37
2018-02-19T01:53:13.294Z,4.41
2018-02-19T01:53:39.392Z,4.5
2018-02-19T01:54:05.493Z,4.48
2018-02-19T01:54:31.601Z,4.44
2018-02-19T01:54:57.701Z,4.48
2018-02-19T01:55:23.808Z,4.48
2018-02-19T01:55:49.902Z,4.41
2018-02-19T01:56:15.996Z,4.35
2018-02-19T01:56:42.094Z,4.48
2018-02-19T01:57:08.197Z,4.5
2018-02-19T01:57:34.299Z,4.48
2018-02-19T01:58:00.396Z,4.44
2018-02-19T01:58:26.498Z,4.48
2018-02-19T01:58:52.599Z,4.48
2018-02-19T01:59:18.702Z,4.5
2018-02-19T01:59:44.798Z,4.5
2018-02-19T02:00:10.905Z,4.5
2018-02-19T02:00:37.039Z,4.56
2018-02-19T02:01:03.134Z,4.53
2018-02-19T02:01:29.235Z,4.59
2018-02-19T02:01:55.340Z,4.58
2018-02-19T02:02:21.437Z,4.58
2018-02-19T02:02:47.531Z,4.67
2018-02-19T02:03:13.641Z,4.58
2018-02-19T02:03:39.743Z,4.55
2018-02-19T02:04:05.838Z,4.6
2018-02-19T02:04:31.941Z,4.58
2018-02-19T02:04:58.060Z,4.55
2018-02-19T02:05:24.160Z,4.53
2018-02-19T02:05:50.264Z,4.58
2018-02-19T02:06:16.358Z,4.52
2018-02-19T02:06:42.456Z,4.53
2018-02-19T02:07:08.557Z,4.52
2018-02-19T02:07:34.660Z,4.58
2018-02-19T02:08:00.757Z,4.49
2018-02-19T02:08:26.856Z,4.45
2018-02-19T02:08:52.959Z,4.53
2018-02-19T02:09:19.056Z,4.62
2018-02-19T02:09:45.177Z,4.5
2018-02-19T02:10:11.269Z,4.55
2018-02-19T02:10:37.370Z,4.55
2018-02-19T02:11:03.468Z,4.53
2018-02-19T02:11:29.571Z,4.48
2018-02-19T02:11:55.695Z,4.5
2018-02-19T02:12:21.790Z,4.48
2018-02-19T02:12:47.887Z,4.58
2018-02-19T02:13:13.990Z,4.6
2018-02-19T02:13:40.141Z,4.67
2018-02-19T02:14:06.188Z,4.68
2018-02-19T02:14:32.306Z,4.53
2018-02-19T02:14:58.407Z,4.52
2018-02-19T02:15:24.498Z,4.49
2018-02-19T02:15:50.603Z,4.45
2018-02-19T02:16:16.712Z,4.44
2018-02-19T02:16:42.812Z,4.52
2018-02-19T02:17:08.915Z,4.58
2018-02-19T02:17:35.012Z,4.53
2018-02-19T02:18:01.114Z,4.63
2018-02-19T02:18:27.219Z,4.63
2018-02-19T02:18:53.316Z,4.59
2018-02-19T02:19:19.428Z,4.56
2018-02-19T02:19:45.549Z,4.4
2018-02-19T02:20:11.658Z,4.49
2018-02-19T02:20:37.760Z,4.42
2018-02-19T02:21:03.854Z,4.49
2018-02-19T02:21:29.957Z,4.45
2018-02-19T02:21:56.055Z,4.45
2018-02-19T02:22:22.162Z,4.45
2018-02-19T02:22:48.258Z,4.45
2018-02-19T02:23:14.378Z,4.38
2018-02-19T02:23:40.475Z,4.4
2018-02-19T02:24:06.589Z,4.48
2018-02-19T02:24:32.687Z,4.52
2018-02-19T02:24:58.788Z,4.52
2018-02-19T02:25:24.885Z,4.42
2018-02-19T02:25:50.986Z,4.44
2018-02-19T02:26:17.082Z,4.44
2018-02-19T02:26:43.182Z,4.35
2018-02-19T02:27:09.284Z,4.41
2018-02-19T02:27:35.406Z,4.32
2018-02-19T02:28:01.498Z,4.41
2018-02-19T02:28:27.600Z,4.48
2018-02-19T02:28:53.697Z,4.5
2018-02-19T02:29:19.806Z,4.48
2018-02-19T02:29:45.909Z,4.48
2018-02-19T02:30:12.008Z,4.63
2018-02-19T02:30:38.134Z,4.56
2018-02-19T02:31:04.228Z,4.55
2018-02-19T02:31:30.323Z,4.63
2018-02-19T02:31:56.428Z,4.71
2018-02-19T02:32:22.528Z,4.67
2018-02-19T02:32:48.642Z,4.71
2018-02-19T02:33:14.746Z,4.67
2018-02-19T02:33:40.868Z,4.67
2018-02-19T02:34:06.975Z,4.71
2018-02-19T02:34:33.079Z,4.67
2018-02-19T02:34:59.176Z,4.7
2018-02-19T02:35:25.270Z,4.67
2018-02-19T02:35:51.370Z,4.66
2018-02-19T02:36:17.471Z,4.63
2018-02-19T02:36:43.565Z,4.73
2018-02-19T02:37:09.667Z,4.75
2018-02-19T02:37:35.767Z,4.74
2018-02-19T02:38:01.859Z,4.71
2018-02-19T02:38:27.958Z,4.77
2018-02-19T02:38:54.092Z,4.82
2018-02-19T02:39:20.193Z,4.8
2018-02-19T02:39:46.291Z,4.74
2018-02-19T02:40:12.400Z,4.73
2018-02-19T02:40:38.505Z,4.67
2018-02-19T02:41:04.601Z,4.71
2018-02-19T02:41:30.722Z,4.7
2018-02-19T02:41:56.825Z,4.67
2018-02-19T02:42:22.928Z,4.63
2018-02-19T02:42:49.032Z,4.53
2018-02-19T02:43:15.126Z,4.66
2018-02-19T02:43:41.232Z,4.58
2018-02-19T02:44:07.334Z,4.56
2018-02-19T02:44:33.430Z,4.5
2018-02-19T02:44:59.525Z,4.42
2018-02-19T02:45:25.630Z,4.44
2018-02-19T02:45:51.763Z,4.44
2018-02-19T02:46:17.857Z,4.5
2018-02-19T02:46:43.970Z,4.5
2018-02-19T02:47:10.067Z,4.44
2018-02-19T02:47:36.167Z,4.48
2018-02-19T02:48:02.261Z,4.35
2018-02-19T02:48:28.386Z,4.34
2018-02-19T02:48:54.481Z,4.32
2018-02-19T02:49:20.575Z,4.37
2018-02-19T02:49:46.676Z,4.3
2018-02-19T02:50:12.782Z,4.26
2018-02-19T02:50:38.885Z,4.24
2018-02-19T02:51:04.980Z,4.19
2018-02-19T02:51:31.077Z,4.32
2018-02-19T02:51:57.180Z,4.31
2018-02-19T02:52:23.295Z,4.31
2018-02-19T02:52:49.392Z,4.31
2018-02-19T02:53:15.489Z,4.26
2018-02-19T02:53:41.589Z,4.31
2018-02-19T02:54:07.692Z,4.31
2018-02-19T02:54:33.790Z,4.37
2018-02-19T02:54:59.893Z,4.48
2018-02-19T02:55:25.995Z,4.37
2018-02-19T02:55:52.089Z,4.44
2018-02-19T02:56:18.188Z,4.45
2018-02-19T02:56:44.291Z,4.42
2018-02-19T02:57:10.397Z,4.44
2018-02-19T02:57:36.508Z,4.48
2018-02-19T02:58:02.606Z,4.44
2018-02-19T02:58:28.701Z,4.52
2018-02-19T02:58:54.801Z,4.53
2018-02-19T02:59:20.940Z,4.49
2018-02-19T02:59:47.049Z,4.6
2018-02-19T03:00:13.168Z,4.59
2018-02-19T03:00:39.265Z,4.58
2018-02-19T03:01:05.382Z,4.6
2018-02-19T03:01:31.483Z,4.6
2018-02-19T03:01:57.580Z,4.58
2018-02-19T03:02:23.684Z,4.59
2018-02-19T03:02:49.782Z,4.53
2018-02-19T03:03:15.882Z,4.62
2018-02-19T03:03:41.982Z,4.55
2018-02-19T03:04:08.076Z,4.53
2018-02-19T03:04:34.182Z,4.53
2018-02-19T03:05:00.280Z,4.49
2018-02-19T03:05:26.384Z,4.5
2018-02-19T03:05:52.476Z,4.55
2018-02-19T03:06:18.580Z,4.49
2018-02-19T03:06:44.680Z,4.55
2018-02-19T03:07:10.779Z,4.59
2018-02-19T03:07:36.880Z,4.58
2018-02-19T03:08:02.974Z,4.59
2018-02-19T03:08:29.074Z,4.66
2018-02-19T03:08:55.174Z,4.59
2018-02-19T03:09:21.269Z,4.63
2018-02-19T03:09:47.369Z,4.73
2018-02-19T03:10:13.491Z,4.67
2018-02-19T03:10:39.588Z,4.66
2018-02-19T03:11:05.690Z,4.73
2018-02-19T03:11:31.785Z,4.53
2018-02-19T03:11:57.903Z,4.68
2018-02-19T03:12:23.999Z,4.55
2018-02-19T03:12:50.119Z,4.62
2018-02-19T03:13:16.238Z,4.45
2018-02-19T03:13:42.331Z,4.5
2018-02-19T03:14:08.462Z,4.4
2018-02-19T03:14:34.563Z,4.34
2018-02-19T03:15:00.660Z,4.34
2018-02-19T03:15:26.801Z,4.32
2018-02-19T03:15:52.900Z,4.38
2018-02-19T03:16:19.006Z,4.31
2018-02-19T03:16:45.102Z,4.32
2018-02-19T03:17:11.199Z,4.3
2018-02-19T03:17:37.299Z,4.3
2018-02-19T03:18:03.398Z,4.38
2018-02-19T03:18:29.500Z,4.4
2018-02-19T03:18:55.614Z,4.38
2018-02-19T03:19:21.719Z,4.41
2018-02-19T03:19:47.815Z,4.48
2018-02-19T03:20:13.933Z,4.5
2018-02-19T03:20:40.038Z,4.53
2018-02-19T03:21:06.137Z,4.49
2018-02-19T03:21:32.242Z,4.45
2018-02-19T03:21:58.338Z,4.44
2018-02-19T03:22:24.451Z,4.5
2018-02-19T03:22:50.557Z,4.53
2018-02-19T03:23:16.650Z,4.53
2018-02-19T03:23:42.752Z,4.4
2018-02-19T03:24:08.858Z,4.44
2018-02-19T03:24:34.953Z,4.45
2018-02-19T03:25:01.049Z,4.35
2018-02-19T03:25:27.154Z,4.34
2018-02-19T03:25:53.254Z,4.45
2018-02-19T03:26:19.349Z,4.42
2018-02-19T03:26:45.453Z,4.44
2018-02-19T03:27:11.546Z,4.4
2018-02-19T03:27:37.649Z,4.42
2018-02-19T03:28:03.746Z,4.5
2018-02-19T03:28:29.843Z,4.5
2018-02-19T03:28:55.950Z,4.44
2018-02-19T03:29:22.041Z,4.44
2018-02-19T03:29:48.149Z,4.52
2018-02-19T03:30:14.255Z,4.48
2018-02-19T03:30:40.363Z,4.44
2018-02-19T03:31:06.459Z,4.34
2018-02-19T03:31:32.563Z,4.38
2018-02-19T03:31:58.655Z,4.55
2018-02-19T03:32:24.761Z,4.48
2018-02-19T03:32:50.861Z,4.44
2018-02-19T03:33:16.960Z,4.42
2018-02-19T03:33:43.057Z,4.42
2018-02-19T03:34:09.156Z,4.38
2018-02-19T03:34:35.260Z,4.4
2018-02-19T03:35:01.357Z,4.35
2018-02-19T03:35:27.479Z,4.3
2018-02-19T03:35:53.561Z,4.35
2018-02-19T03:36:19.679Z,4.3
2018-02-19T03:36:45.776Z,4.23
2018-02-19T03:37:11.876Z,4.28
2018-02-19T03:37:37.994Z,4.31
2018-02-19T03:38:04.091Z,4.23
2018-02-19T03:38:30.194Z,4.2
2018-02-19T03:38:56.289Z,4.19
2018-02-19T03:39:22.395Z,4.16
2018-02-19T03:39:48.497Z,4.2
2018-02-19T03:40:14.591Z,4.3
2018-02-19T03:40:40.689Z,4.2
2018-02-19T03:41:06.786Z,4.28
2018-02-19T03:41:32.903Z,4.26
2018-02-19T03:41:59.011Z,4.22
2018-02-19T03:42:25.102Z,4.26
2018-02-19T03:42:51.207Z,4.19
2018-02-19T03:43:17.303Z,4.23
2018-02-19T03:43:43.406Z,4.26
2018-02-19T03:44:09.510Z,4.19
2018-02-19T03:44:35.623Z,4.34
2018-02-19T03:45:01.721Z,4.19
2018-02-19T03:45:27.822Z,4.28
2018-02-19T03:45:53.921Z,4.28
2018-02-19T03:46:20.024Z,4.26
2018-02-19T03:46:46.125Z,4.22
2018-02-19T03:47:12.219Z,4.22
2018-02-19T03:47:38.323Z,4.24
2018-02-19T03:48:04.424Z,4.16
2018-02-19T03:48:30.518Z,4.14
2018-02-19T03:48:56.620Z,4.13
2018-02-19T03:49:22.718Z,4.02
2018-02-19T03:49:48.822Z,4.04
2018-02-19T03:50:14.921Z,3.95
2018-02-19T03:50:41.025Z,3.98
2018-02-19T03:51:07.125Z,3.95
2018-02-19T03:51:33.227Z,3.94
2018-02-19T03:51:59.327Z,3.98
2018-02-19T03:52:25.421Z,3.88
2018-02-19T03:52:51.522Z,3.88
2018-02-19T03:53:17.619Z,3.87
2018-02-19T03:53:43.726Z,3.96
2018-02-19T03:54:09.836Z,3.92
2018-02-19T03:54:35.936Z,3.94
2018-02-19T03:55:02.034Z,3.98
2018-02-19T03:55:28.136Z,4.02
2018-02-19T03:55:54.242Z,4.04
2018-02-19T03:56:20.335Z,3.96
2018-02-19T03:56:46.432Z,3.88
2018-02-19T03:57:12.531Z,3.76
2018-02-19T03:57:38.625Z,3.84
2018-02-19T03:58:04.733Z,3.91
2018-02-19T03:58:30.833Z,4.01
2018-02-19T03:58:56.927Z,4.01
2018-02-19T03:59:23.021Z,4.06
2018-02-19T03:59:49.127Z,4.06
2018-02-19T04:00:15.222Z,4.12
2018-02-19T04:00:41.319Z,4.06
2018-02-19T04:01:07.432Z,3.98
2018-02-19T04:01:33.538Z,3.99
2018-02-19T04:01:59.629Z,4.08
2018-02-19T04:02:25.733Z,4.06
2018-02-19T04:02:51.829Z,4.12
2018-02-19T04:03:17.928Z,4.06
2018-02-19T04:03:44.028Z,4.06
2018-02-19T04:04:10.128Z,3.96
2018-02-19T04:04:36.228Z,3.94
2018-02-19T04:05:02.337Z,3.99
2018-02-19T04:05:28.430Z,3.98
2018-02-19T04:05:54.534Z,3.87
2018-02-19T04:06:20.632Z,3.86
2018-02-19T04:06:46.733Z,3.78
2018-02-19T04:07:12.862Z,3.78
2018-02-19T04:07:38.964Z,3.78
2018-02-19T04:08:05.060Z,3.78
2018-02-19T04:08:31.172Z,3.77
2018-02-19T04:08:57.278Z,3.69
2018-02-19T04:09:23.372Z,3.74
2018-02-19T04:09:49.475Z,3.77
2018-02-19T04:10:15.593Z,3.66
2018-02-19T04:10:41.690Z,3.76
2018-02-19T04:11:07.793Z,3.65
2018-02-19T04:11:33.887Z,3.65
2018-02-19T04:11:59.990Z,3.62
2018-02-19T04:12:26.084Z,3.63
2018-02-19T04:12:52.189Z,3.74
2018-02-19T04:13:18.287Z,3.55
2018-02-19T04:13:44.385Z,3.51
2018-02-19T04:14:10.489Z,3.63
2018-02-19T04:14:36.620Z,3.6
2018-02-19T04:15:02.719Z,3.58
2018-02-19T04:15:28.817Z,3.74
2018-02-19T04:15:54.919Z,3.78
2018-02-19T04:16:21.036Z,3.7
2018-02-19T04:16:47.130Z,3.62
2018-02-19T04:17:13.246Z,3.65
2018-02-19T04:17:39.348Z,3.69
2018-02-19T04:18:05.447Z,3.62
2018-02-19T04:18:31.550Z,3.73
2018-02-19T04:18:57.654Z,3.78
2018-02-19T04:19:23.752Z,3.78
2018-02-19T04:19:49.857Z,3.76
2018-02-19T04:20:15.968Z,3.78
2018-02-19T04:20:42.064Z,3.74
2018-02-19T04:21:08.160Z,3.74
2018-02-19T04:21:34.262Z,3.78
2018-02-19T04:22:00.381Z,3.81
2018-02-19T04:22:26.476Z,3.76
2018-02-19T04:22:52.601Z,3.78
2018-02-19T04:23:18.715Z,3.74
2018-02-19T04:23:44.813Z,3.7
2018-02-19T04:24:10.909Z,3.74
2018-02-19T04:24:37.008Z,3.83
2018-02-19T04:25:03.108Z,3.86
2018-02-19T04:25:29.201Z,3.86
2018-02-19T04:25:55.301Z,3.86
2018-02-19T04:26:21.399Z,3.83
2018-02-19T04:26:47.496Z,3.88
2018-02-19T04:27:13.630Z,3.96
2018-02-19T04:27:39.748Z,3.78
2018-02-19T04:28:05.851Z,3.8
2018-02-19T04:28:31.952Z,3.91
2018-02-19T04:28:58.044Z,3.94
2018-02-19T04:29:24.150Z,3.92
2018-02-19T04:29:50.244Z,3.96
2018-02-19T04:30:16.345Z,3.84
2018-02-19T04:30:42.445Z,3.87
2018-02-19T04:31:08.540Z,3.86
2018-02-19T04:31:34.662Z,3.86
2018-02-19T04:32:00.756Z,3.91
2018-02-19T04:32:26.876Z,3.92
2018-02-19T04:32:52.976Z,3.98
2018-02-19T04:33:19.073Z,3.81
2018-02-19T04:33:45.176Z,3.81
2018-02-19T04:34:11.276Z,3.87
2018-02-19T04:34:37.381Z,3.94
2018-02-19T04:35:03.472Z,3.77
2018-02-19T04:35:29.571Z,3.83
2018-02-19T04:35:55.676Z,3.73
2018-02-19T04:36:21.787Z,3.63
2018-02-19T04:36:47.890Z,3.78
2018-02-19T04:37:13.989Z,3.81
2018-02-19T04:37:40.090Z,3.83
2018-02-19T04:38:06.192Z,3.62
2018-02-19T04:38:32.288Z,3.74
2018-02-19T04:38:58.385Z,3.78
2018-02-19T04:39:24.489Z,3.74
2018-02-19T04:39:50.593Z,3.8
2018-02-19T04:40:16.684Z,3.78
2018-02-19T04:40:42.799Z,3.86
2018-02-19T04:41:08.895Z,3.84
2018-02-19T04:41:34.995Z,3.78
2018-02-19T04:42:01.099Z,3.83
2018-02-19T04:42:27.196Z,3.81
2018-02-19T04:42:53.290Z,3.87
2018-02-19T04:43:19.392Z,3.86
2018-02-19T04:43:45.496Z,3.88
2018-02-19T04:44:11.597Z,3.86
2018-02-19T04:44:37.702Z,3.88
2018-02-19T04:45:03.801Z,3.96
2018-02-19T04:45:29.898Z,3.96
2018-02-19T04:45:55.998Z,3.96
2018-02-19T04:46:22.094Z,3.99
2018-02-19T04:46:48.188Z,3.99
2018-02-19T04:47:14.295Z,3.83
2018-02-19T04:47:40.392Z,3.86
2018-02-19T04:48:06.489Z,3.8
2018-02-19T04:48:32.594Z,3.74
2018-02-19T04:48:58.690Z,3.73
2018-02-19T04:49:24.797Z,3.8
2018-02-19T04:49:50.897Z,3.95
2018-02-19T04:50:16.991Z,3.81
2018-02-19T04:50:43.097Z,3.78
2018-02-19T04:51:09.194Z,3.78
2018-02-19T04:51:35.293Z,3.86
2018-02-19T04:52:01.400Z,3.92
2018-02-19T04:52:27.511Z,3.96
2018-02-19T04:52:53.612Z,3.95
2018-02-19T04:53:19.714Z,3.78
2018-02-19T04:53:45.809Z,3.91
2018-02-19T04:54:11.909Z,3.86
2018-02-19T04:54:38.004Z,3.88
2018-02-19T04:55:04.110Z,3.83
2018-02-19T04:55:30.210Z,3.81
2018-02-19T04:55:56.318Z,3.78
2018-02-19T04:56:22.428Z,3.8
2018-02-19T04:56:48.533Z,3.8
2018-02-19T04:57:14.630Z,3.91
2018-02-19T04:57:40.729Z,3.78
2018-02-19T04:58:06.839Z,3.87
2018-02-19T04:58:32.930Z,3.96
2018-02-19T04:58:59.027Z,3.95
2018-02-19T04:59:25.133Z,3.94
2018-02-19T04:59:51.232Z,3.83
2018-02-19T05:00:17.331Z,3.78
2018-02-19T05:00:43.436Z,3.88
2018-02-19T05:01:09.531Z,3.91
2018-02-19T05:01:35.630Z,3.96
2018-02-19T05:02:01.732Z,3.87
2018-02-19T05:02:27.847Z,3.91
2018-02-19T05:02:53.943Z,3.88
2018-02-19T05:03:20.049Z,3.95
2018-02-19T05:03:46.152Z,3.95
2018-02-19T05:04:12.246Z,3.94
2018-02-19T05:04:38.354Z,3.91
2018-02-19T05:05:04.469Z,3.92
2018-02-19T05:05:30.566Z,4.02
2018-02-19T05:05:56.686Z,3.95
2018-02-19T05:06:22.786Z,3.95
2018-02-19T05:06:48.882Z,3.94
2018-02-19T05:07:14.988Z,3.88
2018-02-19T05:07:41.096Z,3.81
2018-02-19T05:08:07.199Z,3.88
2018-02-19T05:08:33.295Z,3.86
2018-02-19T05:08:59.401Z,3.78
2018-02-19T05:09:25.505Z,3.88
2018-02-19T05:09:51.619Z,3.87
2018-02-19T05:10:17.717Z,3.78
2018-02-19T05:10:43.818Z,3.84
2018-02-19T05:11:09.922Z,3.84
2018-02-19T05:11:36.016Z,3.86
2018-02-19T05:12:02.116Z,3.91
2018-02-19T05:12:28.215Z,3.84
2018-02-19T05:12:54.321Z,3.86
2018-02-19T05:13:20.420Z,3.91
2018-02-19T05:13:46.519Z,3.83
2018-02-19T05:14:12.616Z,3.88
2018-02-19T05:14:38.720Z,3.91
2018-02-19T05:15:04.814Z,3.88
2018-02-19T05:15:30.912Z,3.84
2018-02-19T05:15:57.016Z,3.78
2018-02-19T05:16:23.108Z,3.76
2018-02-19T05:16:49.229Z,3.8
2018-02-19T05:17:15.329Z,3.81
2018-02-19T05:17:41.423Z,3.8
2018-02-19T05:18:07.527Z,3.92
2018-02-19T05:18:33.623Z,3.84
2018-02-19T05:18:59.721Z,3.86
2018-02-19T05:19:25.819Z,3.76
2018-02-19T05:19:51.932Z,3.78
2018-02-19T05:20:18.036Z,3.77
2018-02-19T05:20:44.133Z,3.76
2018-02-19T05:21:10.237Z,3.66
2018-02-19T05:21:36.339Z,3.65
2018-02-19T05:22:02.438Z,3.7
2018-02-19T05:22:28.531Z,3.63
2018-02-19T05:22:54.648Z,3.66
2018-02-19T05:23:20.740Z,3.66
2018-02-19T05:23:46.852Z,3.6
2018-02-19T05:24:12.952Z,3.62
2018-02-19T05:24:39.058Z,3.63
2018-02-19T05:25:05.173Z,3.65
2018-02-19T05:25:31.275Z,3.68
2018-02-19T05:25:57.377Z,3.63
2018-02-19T05:26:23.490Z,3.76
2018-02-19T05:26:49.606Z,3.63
2018-02-19T05:27:15.708Z,3.65
2018-02-19T05:27:41.807Z,3.76
2018-02-19T05:28:07.900Z,3.74
2018-02-19T05:28:34.005Z,3.68
2018-02-19T05:29:00.128Z,3.77
2018-02-19T05:29:26.203Z,3.63
2018-02-19T05:29:52.305Z,3.77
2018-02-19T05:30:18.403Z,3.62
2018-02-19T05:30:44.507Z,3.59
2018-02-19T05:31:10.601Z,3.69
2018-02-19T05:31:36.709Z,3.7
2018-02-19T05:32:02.820Z,3.73
2018-02-19T05:32:28.921Z,3.76
2018-02-19T05:32:55.025Z,3.81
2018-02-19T05:33:21.133Z,3.76
2018-02-19T05:33:47.229Z,3.86
2018-02-19T05:34:13.333Z,3.76
2018-02-19T05:34:39.434Z,3.76
2018-02-19T05:35:05.537Z,3.65
2018-02-19T05:35:31.636Z,3.81
2018-02-19T05:35:57.733Z,3.83
2018-02-19T05:36:23.829Z,3.86
2018-02-19T05:36:49.930Z,3.8
2018-02-19T05:37:16.030Z,3.78
2018-02-19T05:37:42.140Z,3.83
2018-02-19T05:38:08.236Z,3.88
2018-02-19T05:38:34.339Z,3.95
2018-02-19T05:39:00.433Z,3.95
2018-02-19T05:39:26.538Z,3.91
2018-02-19T05:39:52.632Z,3.88
2018-02-19T05:40:18.735Z,3.87
2018-02-19T05:40:44.845Z,3.88
2018-02-19T05:41:10.950Z,3.87
2018-02-19T05:41:37.048Z,3.95
2018-02-19T05:42:03.153Z,3.98
2018-02-19T05:42:29.263Z,3.99
2018-02-19T05:42:55.347Z,3.92
2018-02-19T05:43:21.449Z,3.96
2018-02-19T05:43:47.547Z,3.96
2018-02-19T05:44:13.646Z,3.98
2018-02-19T05:44:39.765Z,3.96
2018-02-19T05:45:05.846Z,3.99
2018-02-19T05:45:31.961Z,3.96
2018-02-19T05:45:58.064Z,4.06
2018-02-19T05:46:24.159Z,4.04
2018-02-19T05:46:50.262Z,4.06
2018-02-19T05:47:16.361Z,4.05
2018-02-19T05:47:42.449Z,4.08
2018-02-19T05:48:08.549Z,3.99
2018-02-19T05:48:34.656Z,4.08